sensor_id;sensor_type;location;lat;lon;timestamp;temperature;humidity
65064;DHT22;51654;51.452;6.644;2023-07-09T08:23:50;33.60;34.00
65064;DHT22;51654;51.452;6.644;2023-07-09T08:26:19;33.70;34.30
65064;DHT22;51654;51.452;6.644;2023-07-09T08:28:46;33.80;33.40
65064;DHT22;51654;51.452;6.644;2023-07-09T08:31:13;33.90;33.60
65064;DHT22;51654;51.452;6.644;2023-07-09T08:33:40;34.00;33.20
65064;DHT22;51654;51.452;6.644;2023-07-09T08:36:08;34.30;33.10
65064;DHT22;51654;51.452;6.644;2023-07-09T08:38:35;34.50;33.00
65064;DHT22;51654;51.452;6.644;2023-07-09T08:41:39;34.70;32.50
65064;DHT22;51654;51.452;6.644;2023-07-09T08:47:14;34.50;31.90
65064;DHT22;51654;51.452;6.644;2023-07-09T08:49:45;34.30;32.40
65064;DHT22;51654;51.452;6.644;2023-07-09T08:52:15;34.00;32.20
65064;DHT22;51654;51.452;6.644;2023-07-09T08:54:44;33.90;32.80
65064;DHT22;51654;51.452;6.644;2023-07-09T08:57:17;33.60;32.70
65064;DHT22;51654;51.452;6.644;2023-07-09T08:59:46;33.50;32.90
65064;DHT22;51654;51.452;6.644;2023-07-09T09:02:16;33.50;33.10
65064;DHT22;51654;51.452;6.644;2023-07-09T09:04:48;33.50;33.10
65064;DHT22;51654;51.452;6.644;2023-07-09T09:07:31;33.40;33.10
65064;DHT22;51654;51.452;6.644;2023-07-09T09:10:02;33.50;33.40
65064;DHT22;51654;51.452;6.644;2023-07-09T09:14:57;34.20;32.10
65064;DHT22;51654;51.452;6.644;2023-07-09T09:17:25;34.40;31.10
65064;DHT22;51654;51.452;6.644;2023-07-09T09:19:57;34.30;31.00
65064;DHT22;51654;51.452;6.644;2023-07-09T09:22:30;34.20;31.30
65064;DHT22;51654;51.452;6.644;2023-07-09T09:25:15;34.30;31.50
65064;DHT22;51654;51.452;6.644;2023-07-09T09:27:45;34.70;31.10
65064;DHT22;51654;51.452;6.644;2023-07-09T09:30:21;34.60;31.10
65064;DHT22;51654;51.452;6.644;2023-07-09T09:32:55;34.70;30.80
65064;DHT22;51654;51.452;6.644;2023-07-09T09:35:28;34.70;30.50
65064;DHT22;51654;51.452;6.644;2023-07-09T09:37:57;34.80;30.60
65064;DHT22;51654;51.452;6.644;2023-07-09T09:40:27;35.00;30.30
65064;DHT22;51654;51.452;6.644;2023-07-09T09:42:56;35.10;29.30
65064;DHT22;51654;51.452;6.644;2023-07-09T09:45:28;35.00;29.30
65064;DHT22;51654;51.452;6.644;2023-07-09T09:48:00;35.00;29.60
65064;DHT22;51654;51.452;6.644;2023-07-09T09:50:32;35.00;29.20
65064;DHT22;51654;51.452;6.644;2023-07-09T09:52:59;35.00;29.70
65064;DHT22;51654;51.452;6.644;2023-07-09T09:55:30;35.10;29.60
65064;DHT22;51654;51.452;6.644;2023-07-09T09:57:59;35.40;29.30
65064;DHT22;51654;51.452;6.644;2023-07-09T10:00:28;35.50;28.60
65064;DHT22;51654;51.452;6.644;2023-07-09T10:03:03;35.60;28.50
65064;DHT22;51654;51.452;6.644;2023-07-09T10:05:41;35.70;28.60
65064;DHT22;51654;51.452;6.644;2023-07-09T10:08:47;35.60;28.40
65064;DHT22;51654;51.452;6.644;2023-07-09T10:11:20;35.60;28.40
65064;DHT22;51654;51.452;6.644;2023-07-09T10:13:49;35.50;28.20
65064;DHT22;51654;51.452;6.644;2023-07-09T10:16:43;35.40;28.60
65064;DHT22;51654;51.452;6.644;2023-07-09T10:22:07;35.40;28.00
65064;DHT22;51654;51.452;6.644;2023-07-09T10:25:02;35.30;28.10
65064;DHT22;51654;51.452;6.644;2023-07-09T10:27:48;35.20;27.90
65064;DHT22;51654;51.452;6.644;2023-07-09T10:33:39;35.30;27.90
65064;DHT22;51654;51.452;6.644;2023-07-09T10:38:59;35.10;28.40
65064;DHT22;51654;51.452;6.644;2023-07-09T10:41:27;35.20;28.40
65064;DHT22;51654;51.452;6.644;2023-07-09T10:46:26;35.70;27.70
65064;DHT22;51654;51.452;6.644;2023-07-09T10:48:54;35.50;27.70
65064;DHT22;51654;51.452;6.644;2023-07-09T10:53:53;35.50;27.50
65064;DHT22;51654;51.452;6.644;2023-07-09T10:56:23;35.50;27.20
65064;DHT22;51654;51.452;6.644;2023-07-09T11:01:43;35.30;26.90
65064;DHT22;51654;51.452;6.644;2023-07-09T11:04:35;35.30;26.90
65064;DHT22;51654;51.452;6.644;2023-07-09T11:07:11;35.20;27.00
65064;DHT22;51654;51.452;6.644;2023-07-09T11:09:43;35.20;26.80
65064;DHT22;51654;51.452;6.644;2023-07-09T11:12:17;35.30;27.00
65064;DHT22;51654;51.452;6.644;2023-07-09T11:14:47;35.30;26.70
65064;DHT22;51654;51.452;6.644;2023-07-09T11:17:19;35.20;27.20
65064;DHT22;51654;51.452;6.644;2023-07-09T11:19:53;34.90;27.20
65064;DHT22;51654;51.452;6.644;2023-07-09T11:22:21;34.70;27.10
65064;DHT22;51654;51.452;6.644;2023-07-09T11:25:12;34.60;27.30
65064;DHT22;51654;51.452;6.644;2023-07-09T11:27:52;34.40;27.90
65064;DHT22;51654;51.452;6.644;2023-07-09T11:30:23;34.40;28.20
65064;DHT22;51654;51.452;6.644;2023-07-09T11:33:02;34.40;27.80
65064;DHT22;51654;51.452;6.644;2023-07-09T11:35:51;34.40;28.00
65064;DHT22;51654;51.452;6.644;2023-07-09T11:38:23;34.50;27.70
65064;DHT22;51654;51.452;6.644;2023-07-09T11:40:54;34.40;28.00
65064;DHT22;51654;51.452;6.644;2023-07-09T11:43:31;34.40;28.10
65064;DHT22;51654;51.452;6.644;2023-07-09T11:46:09;34.40;28.00
65064;DHT22;51654;51.452;6.644;2023-07-09T11:48:39;34.20;28.20
65064;DHT22;51654;51.452;6.644;2023-07-09T11:51:32;34.10;28.10
65064;DHT22;51654;51.452;6.644;2023-07-09T11:54:01;34.20;27.90
65064;DHT22;51654;51.452;6.644;2023-07-09T11:56:28;34.20;27.70
65064;DHT22;51654;51.452;6.644;2023-07-09T11:58:56;34.20;27.50
65064;DHT22;51654;51.452;6.644;2023-07-09T12:01:27;34.20;27.70
65064;DHT22;51654;51.452;6.644;2023-07-09T12:03:56;34.20;27.90
65064;DHT22;51654;51.452;6.644;2023-07-09T12:06:29;34.20;28.20
65064;DHT22;51654;51.452;6.644;2023-07-09T12:08:58;34.20;28.40
65064;DHT22;51654;51.452;6.644;2023-07-09T12:11:30;34.10;28.80
65064;DHT22;51654;51.452;6.644;2023-07-09T12:14:11;34.20;28.60
65064;DHT22;51654;51.452;6.644;2023-07-09T12:16:44;34.30;28.60
65064;DHT22;51654;51.452;6.644;2023-07-09T12:19:20;34.50;28.40
65064;DHT22;51654;51.452;6.644;2023-07-09T12:21:53;34.50;28.30
65064;DHT22;51654;51.452;6.644;2023-07-09T12:24:31;34.50;28.40
65064;DHT22;51654;51.452;6.644;2023-07-09T12:27:14;34.60;28.60
65064;DHT22;51654;51.452;6.644;2023-07-09T12:29:43;34.70;28.40
65064;DHT22;51654;51.452;6.644;2023-07-09T12:32:13;34.50;28.50
65064;DHT22;51654;51.452;6.644;2023-07-09T12:34:40;34.40;28.80
65064;DHT22;51654;51.452;6.644;2023-07-09T12:37:12;34.40;28.90
65064;DHT22;51654;51.452;6.644;2023-07-09T12:39:40;34.40;28.70
65064;DHT22;51654;51.452;6.644;2023-07-09T12:42:16;34.40;28.70
65064;DHT22;51654;51.452;6.644;2023-07-09T12:44:43;34.40;29.00
65064;DHT22;51654;51.452;6.644;2023-07-09T12:47:16;34.50;28.90
65064;DHT22;51654;51.452;6.644;2023-07-09T12:49:45;34.50;28.90
65064;DHT22;51654;51.452;6.644;2023-07-09T12:52:19;34.70;28.90
65064;DHT22;51654;51.452;6.644;2023-07-09T12:54:59;34.80;28.90
65064;DHT22;51654;51.452;6.644;2023-07-09T12:57:27;34.90;28.90
65064;DHT22;51654;51.452;6.644;2023-07-09T12:59:55;35.00;28.90
65064;DHT22;51654;51.452;6.644;2023-07-09T13:02:23;35.00;28.80
65064;DHT22;51654;51.452;6.644;2023-07-09T13:05:03;35.00;28.80
65064;DHT22;51654;51.452;6.644;2023-07-09T13:07:37;34.90;28.70
65064;DHT22;51654;51.452;6.644;2023-07-09T13:10:14;35.00;28.80
65064;DHT22;51654;51.452;6.644;2023-07-09T13:12:46;35.00;29.10
65064;DHT22;51654;51.452;6.644;2023-07-09T13:18:02;34.90;29.10
65064;DHT22;51654;51.452;6.644;2023-07-09T13:20:37;35.00;29.10
65064;DHT22;51654;51.452;6.644;2023-07-09T13:23:13;35.00;29.10
65064;DHT22;51654;51.452;6.644;2023-07-09T13:25:41;35.00;29.00
65064;DHT22;51654;51.452;6.644;2023-07-09T13:30:50;34.80;29.30
65064;DHT22;51654;51.452;6.644;2023-07-09T13:33:18;34.60;29.40
65064;DHT22;51654;51.452;6.644;2023-07-09T13:35:46;34.50;29.50
65064;DHT22;51654;51.452;6.644;2023-07-09T13:38:17;34.40;29.60
65064;DHT22;51654;51.452;6.644;2023-07-09T13:40:46;34.30;29.90
65064;DHT22;51654;51.452;6.644;2023-07-09T13:43:16;34.10;30.00
65064;DHT22;51654;51.452;6.644;2023-07-09T13:45:43;33.90;31.70
65064;DHT22;51654;51.452;6.644;2023-07-09T13:48:16;32.30;38.10
65064;DHT22;51654;51.452;6.644;2023-07-09T13:50:44;30.30;42.70
65064;DHT22;51654;51.452;6.644;2023-07-09T13:53:19;28.00;46.50
